createdAt,value
2019-02-02T00:01:03.164Z,46.05
2019-02-02T00:03:31.895Z,46.90
2019-02-02T00:06:02.113Z,47.98
2019-02-02T00:08:37.549Z,49.05
2019-02-02T00:11:06.451Z,49.83
2019-02-02T00:13:35.449Z,54.47
2019-02-02T00:16:11.848Z,53.33
2019-02-02T00:18:40.568Z,53.73
2019-02-02T00:21:09.835Z,50.12
2019-02-02T00:23:45.005Z,52.17
2019-02-02T00:26:20.647Z,54.90
2019-02-02T00:28:56.015Z,53.60
2019-02-02T00:31:24.890Z,54.53
2019-02-02T00:34:13.631Z,55.52
2019-02-02T00:36:42.363Z,52.10
2019-02-02T00:39:29.820Z,54.90
2019-02-02T00:42:08.668Z,54.23
2019-02-02T00:44:44.047Z,54.77
2019-02-02T00:47:12.940Z,57.73
2019-02-02T00:49:41.907Z,56.50
2019-02-02T00:52:17.803Z,57.27
2019-02-02T00:54:46.828Z,56.37
2019-02-02T00:57:15.874Z,54.88
2019-02-02T00:59:51.635Z,57.77
2019-02-02T01:02:20.331Z,55.97
2019-02-02T01:04:49.093Z,55.28
2019-02-02T01:07:24.887Z,60.90
2019-02-02T01:09:53.641Z,55.10
2019-02-02T01:12:22.652Z,58.08
2019-02-02T01:14:58.762Z,57.23
2019-02-02T01:17:27.555Z,62.62
2019-02-02T01:19:56.299Z,58.10
2019-02-02T01:22:32.009Z,57.55
2019-02-02T01:25:00.873Z,57.30
2019-02-02T01:27:29.986Z,61.45
2019-02-02T01:30:05.717Z,59.55
2019-02-02T01:32:34.456Z,60.10
2019-02-02T01:35:16.869Z,58.73
2019-02-02T01:37:51.728Z,59.53
2019-02-02T01:40:27.403Z,62.93
2019-02-02T01:43:02.478Z,59.38
2019-02-02T01:45:38.187Z,61.55
2019-02-02T01:48:06.930Z,62.62
2019-02-02T01:50:35.970Z,57.48
2019-02-02T01:53:11.758Z,64.35
2019-02-02T01:55:40.500Z,62.80
2019-02-02T01:58:16.422Z,66.77
2019-02-02T02:00:46.680Z,66.70
2019-02-02T02:03:15.698Z,66.47
2019-02-02T02:05:44.553Z,62.93
2019-02-02T02:08:19.566Z,69.25
2019-02-02T02:10:48.454Z,65.37
2019-02-02T02:13:17.721Z,69.85
2019-02-02T02:15:53.135Z,64.45
2019-02-02T02:18:21.856Z,70.28
2019-02-02T02:20:50.906Z,67.32
2019-02-02T02:23:26.518Z,67.83
2019-02-02T02:25:55.565Z,69.95
2019-02-02T02:28:28.308Z,64.70
2019-02-02T02:31:02.173Z,67.78
2019-02-02T02:33:30.894Z,68.60
2019-02-02T02:36:12.882Z,64.92
2019-02-02T02:38:48.810Z,66.53
2019-02-02T02:41:24.225Z,63.45
2019-02-02T02:43:59.117Z,66.00
2019-02-02T02:46:34.762Z,69.27
2019-02-02T02:49:03.513Z,67.70
2019-02-02T02:51:32.236Z,67.67
2019-02-02T02:54:07.291Z,69.30
2019-02-02T02:56:36.239Z,72.80
2019-02-02T02:59:05.401Z,67.97
2019-02-02T03:01:40.845Z,67.40
2019-02-02T03:04:09.674Z,69.72
2019-02-02T03:06:38.428Z,69.30
2019-02-02T03:09:16.463Z,64.45
2019-02-02T03:11:45.232Z,70.35
2019-02-02T03:14:13.986Z,72.70
2019-02-02T03:16:50.052Z,68.83
2019-02-02T03:19:19.056Z,69.00
2019-02-02T03:21:47.805Z,66.17
2019-02-02T03:24:22.994Z,66.15
2019-02-02T03:26:51.794Z,71.40
2019-02-02T03:29:20.776Z,71.77
2019-02-02T03:31:56.400Z,70.70
2019-02-02T03:34:25.494Z,77.55
2019-02-02T03:37:07.629Z,72.82
2019-02-02T03:39:43.306Z,74.13
2019-02-02T03:42:18.759Z,72.40
2019-02-02T03:44:53.819Z,70.08
2019-02-02T03:47:29.811Z,68.50
2019-02-02T03:49:58.546Z,72.87
2019-02-02T03:52:27.468Z,74.17
2019-02-02T03:55:03.258Z,73.60
2019-02-02T03:57:32.030Z,73.83
2019-02-02T04:00:01.127Z,70.27
2019-02-02T04:02:36.417Z,70.70
2019-02-02T04:05:07.567Z,76.82
2019-02-02T04:07:36.554Z,74.65
2019-02-02T04:10:14.085Z,67.58
2019-02-02T04:12:42.933Z,69.60
2019-02-02T04:15:12.317Z,68.97
2019-02-02T04:17:49.935Z,70.50
2019-02-02T04:20:20.491Z,73.28
2019-02-02T04:22:49.730Z,72.45
2019-02-02T04:39:42.417Z,67.35
2019-02-02T04:42:17.702Z,68.75
2019-02-02T04:44:53.871Z,71.20
2019-02-02T04:47:29.789Z,70.03
2019-02-02T04:50:04.928Z,72.22
2019-02-02T04:52:33.909Z,68.60
2019-02-02T04:55:02.649Z,70.55
2019-02-02T04:57:38.568Z,68.72
2019-02-02T05:00:10.772Z,71.77
2019-02-02T05:02:39.578Z,70.35
2019-02-02T05:05:17.536Z,69.58
2019-02-02T05:07:46.351Z,69.77
2019-02-02T05:10:17.325Z,71.62
2019-02-02T05:12:52.808Z,70.10
2019-02-02T05:15:22.034Z,69.90
2019-02-02T05:17:51.083Z,71.97
2019-02-02T05:20:28.092Z,70.30
2019-02-02T05:22:56.867Z,68.83
2019-02-02T05:25:25.625Z,73.02
2019-02-02T05:28:01.511Z,68.20
2019-02-02T05:30:30.763Z,70.20
2019-02-02T05:32:59.899Z,73.05
2019-02-02T05:35:35.648Z,69.35
2019-02-02T05:38:04.724Z,72.17
2019-02-02T05:40:47.032Z,71.33
2019-02-02T05:43:22.740Z,70.05
2019-02-02T05:45:58.485Z,72.25
2019-02-02T05:48:33.964Z,72.47
2019-02-02T05:51:09.005Z,68.70
2019-02-02T05:53:37.761Z,74.95
2019-02-02T05:56:06.891Z,69.58
2019-02-02T05:58:42.767Z,67.78
2019-02-02T06:01:16.483Z,72.70
2019-02-02T06:03:45.567Z,71.40
2019-02-02T06:06:21.181Z,66.20
2019-02-02T06:08:49.887Z,68.87
2019-02-02T06:11:18.884Z,68.40
2019-02-02T06:13:54.558Z,71.57
2019-02-02T06:16:23.319Z,69.97
2019-02-02T06:18:52.268Z,67.53
2019-02-02T06:21:28.135Z,77.35
2019-02-02T06:23:57.133Z,71.12
2019-02-02T06:26:25.858Z,70.40
2019-02-02T06:29:00.808Z,75.52
2019-02-02T06:31:29.816Z,75.75
2019-02-02T06:33:58.513Z,67.70
2019-02-02T06:36:34.770Z,71.42
2019-02-02T06:39:05.253Z,70.85
2019-02-02T06:41:46.979Z,72.03
2019-02-02T06:44:22.273Z,71.10
2019-02-02T06:46:57.998Z,70.57
2019-02-02T06:49:33.747Z,70.42
2019-02-02T06:52:08.985Z,77.10
2019-02-02T06:54:37.710Z,66.95
2019-02-02T06:57:06.465Z,71.62
2019-02-02T06:59:42.505Z,67.17
2019-02-02T07:02:11.302Z,68.52
2019-02-02T07:04:40.327Z,73.72
2019-02-02T07:07:16.032Z,70.22
2019-02-02T07:09:44.738Z,67.78
2019-02-02T07:12:13.457Z,70.87
2019-02-02T07:14:49.893Z,73.30
2019-02-02T07:17:18.880Z,69.07
2019-02-02T07:19:48.137Z,68.10
2019-02-02T07:22:24.140Z,70.42
2019-02-02T07:24:53.006Z,71.63
2019-02-02T07:27:21.933Z,75.12
2019-02-02T07:29:57.616Z,73.57
2019-02-02T07:32:26.387Z,71.93
2019-02-02T07:34:55.083Z,72.90
2019-02-02T07:37:30.297Z,72.82
2019-02-02T07:39:59.024Z,71.35
2019-02-02T07:42:40.288Z,78.90
2019-02-02T07:45:20.198Z,74.37
2019-02-02T07:47:56.002Z,67.47
2019-02-02T07:50:33.581Z,75.37
2019-02-02T07:53:08.706Z,71.95
2019-02-02T07:55:37.727Z,71.67
2019-02-02T07:58:06.507Z,76.75
2019-02-02T08:00:43.614Z,71.45
2019-02-02T08:03:13.285Z,70.05
2019-02-02T08:05:42.175Z,70.17
2019-02-02T08:08:17.649Z,72.30
2019-02-02T08:10:46.354Z,73.00
2019-02-02T08:13:15.271Z,70.45
2019-02-02T08:15:50.199Z,68.17
2019-02-02T08:18:18.896Z,70.28
2019-02-02T08:20:47.657Z,73.12
2019-02-02T08:23:22.584Z,73.83
2019-02-02T08:25:51.406Z,72.12
2019-02-02T08:28:21.937Z,75.45
2019-02-02T08:30:57.719Z,68.62
2019-02-02T08:33:26.455Z,70.83
2019-02-02T08:35:55.403Z,74.17
2019-02-02T08:38:31.554Z,69.00
2019-02-02T08:41:00.594Z,70.92
2019-02-02T08:43:42.154Z,69.32
2019-02-02T08:46:17.834Z,70.17
2019-02-02T08:48:53.851Z,70.40
2019-02-02T08:51:29.849Z,69.75
2019-02-02T08:54:05.057Z,70.07
2019-02-02T08:56:33.877Z,70.65
2019-02-02T08:59:02.650Z,70.75
2019-02-02T09:01:38.534Z,74.37
2019-02-02T09:04:07.907Z,74.67
2019-02-02T09:06:39.199Z,74.65
2019-02-02T09:09:15.693Z,69.97
2019-02-02T09:11:44.686Z,70.83
2019-02-02T09:14:13.699Z,72.00
2019-02-02T09:16:49.008Z,67.82
2019-02-02T09:19:17.782Z,70.85
2019-02-02T09:21:46.541Z,68.55
2019-02-02T09:24:22.845Z,69.03
2019-02-02T09:26:51.619Z,67.85
2019-02-02T09:29:20.370Z,67.58
2019-02-02T09:31:56.131Z,67.25
2019-02-02T09:34:24.909Z,69.35
2019-02-02T09:36:53.695Z,70.10
2019-02-02T09:39:28.810Z,70.83
2019-02-02T09:41:57.606Z,68.42
2019-02-02T09:44:39.499Z,68.60
2019-02-02T09:47:15.663Z,66.80
2019-02-02T09:49:50.858Z,67.50
2019-02-02T09:52:26.106Z,73.23
2019-02-02T09:55:01.640Z,72.20
2019-02-02T09:57:30.431Z,72.53
2019-02-02T09:59:59.608Z,71.95
2019-02-02T10:02:35.554Z,72.40
2019-02-02T10:05:05.346Z,73.15
2019-02-02T10:07:34.139Z,73.05
2019-02-02T10:10:10.106Z,74.95
2019-02-02T10:12:39.610Z,74.17
2019-02-02T10:15:08.741Z,74.37
2019-02-02T10:17:44.883Z,74.55
2019-02-02T10:20:19.118Z,75.70
2019-02-02T10:22:55.070Z,71.55
2019-02-02T10:25:26.028Z,72.78
2019-02-02T10:27:54.816Z,80.67
2019-02-02T10:30:35.954Z,71.13
2019-02-02T10:33:05.004Z,74.77
2019-02-02T10:35:33.763Z,70.22
2019-02-02T10:38:09.742Z,72.08
2019-02-02T10:44:33.617Z,72.53
2019-02-02T10:47:09.239Z,74.53
2019-02-02T10:49:45.038Z,78.40
2019-02-02T10:52:13.869Z,72.77
2019-02-02T10:54:58.594Z,76.40
2019-02-02T10:57:27.463Z,74.77
2019-02-02T10:59:56.357Z,76.13
2019-02-02T11:02:32.278Z,71.97
2019-02-02T11:05:01.101Z,73.83
2019-02-02T11:07:44.031Z,71.92
2019-02-02T11:10:18.172Z,78.45
2019-02-02T11:12:54.494Z,74.47
2019-02-02T11:15:23.485Z,72.47
2019-02-02T11:17:52.279Z,74.65
2019-02-02T11:20:30.498Z,74.50
2019-02-02T11:22:59.455Z,78.05
2019-02-02T11:25:28.717Z,70.30
2019-02-02T11:28:04.733Z,76.60
2019-02-02T11:30:33.629Z,76.40
2019-02-02T11:33:02.812Z,72.62
2019-02-02T11:35:38.035Z,71.80
2019-02-02T11:38:07.028Z,71.42
2019-02-02T11:40:35.968Z,72.37
2019-02-02T11:43:11.128Z,73.72
2019-02-02T11:45:59.737Z,68.02
2019-02-02T11:48:35.420Z,71.60
2019-02-02T11:51:04.264Z,67.60
2019-02-02T11:53:37.338Z,64.73
2019-02-02T11:56:19.376Z,73.22
2019-02-02T11:58:49.686Z,70.37
2019-02-02T12:01:18.601Z,68.12
2019-02-02T12:03:54.629Z,73.30
2019-02-02T12:06:23.332Z,74.62
2019-02-02T12:08:52.311Z,78.57
2019-02-02T12:11:28.443Z,76.97
2019-02-02T12:13:57.714Z,79.97
2019-02-02T12:16:26.485Z,82.78
2019-02-02T12:19:02.313Z,78.50
2019-02-02T12:21:31.283Z,82.50
2019-02-02T12:24:00.083Z,79.70
2019-02-02T12:26:35.451Z,84.97
2019-02-02T12:29:04.340Z,82.40
2019-02-02T12:31:33.374Z,75.93
2019-02-02T12:34:09.288Z,79.15
2019-02-02T12:36:38.020Z,78.60
2019-02-02T12:39:10.763Z,79.27
2019-02-02T12:41:46.051Z,78.15
2019-02-02T12:44:14.790Z,82.95
2019-02-02T12:46:56.528Z,81.63
2019-02-02T12:49:32.293Z,85.25
2019-02-02T12:52:08.224Z,86.12
2019-02-02T12:54:37.016Z,80.15
2019-02-02T12:57:19.882Z,78.30
2019-02-02T12:59:48.613Z,78.35
2019-02-02T13:02:17.872Z,76.30
2019-02-02T13:04:53.100Z,74.85
2019-02-02T13:07:22.181Z,76.15
2019-02-02T13:09:51.219Z,72.42
2019-02-02T13:12:26.889Z,74.70
2019-02-02T13:14:55.982Z,76.33
2019-02-02T13:17:25.003Z,72.15
2019-02-02T13:20:00.819Z,74.15
2019-02-02T13:22:29.818Z,77.08
2019-02-02T13:24:59.081Z,79.22
2019-02-02T13:27:34.112Z,76.72
2019-02-02T13:30:02.886Z,77.12
2019-02-02T13:32:31.881Z,77.70
2019-02-02T13:35:07.455Z,74.30
2019-02-02T13:37:36.240Z,75.22
2019-02-02T13:40:07.730Z,77.40
2019-02-02T13:42:43.449Z,80.57
2019-02-02T13:45:13.269Z,81.85
2019-02-02T13:47:55.090Z,80.85
2019-02-02T13:50:31.274Z,75.53
2019-02-02T13:53:06.835Z,81.78
2019-02-02T13:55:35.876Z,79.72
2019-02-02T13:58:18.728Z,78.07
2019-02-02T14:00:47.504Z,76.82
2019-02-02T14:03:16.244Z,80.90
2019-02-02T14:05:52.148Z,77.82
2019-02-02T14:08:21.653Z,71.40
2019-02-02T14:10:50.741Z,76.47
2019-02-02T14:13:26.257Z,73.67
2019-02-02T14:15:55.281Z,73.15
2019-02-02T14:18:24.277Z,78.70
2019-02-02T14:20:59.475Z,79.15
2019-02-02T14:23:28.543Z,73.77
2019-02-02T14:25:57.593Z,75.17
2019-02-02T14:28:33.733Z,72.15
2019-02-02T14:31:02.454Z,69.85
2019-02-02T14:33:31.198Z,72.85
2019-02-02T14:36:06.677Z,67.90
2019-02-02T14:38:35.715Z,66.60
2019-02-02T14:41:04.877Z,68.52
2019-02-02T14:43:40.271Z,66.22
2019-02-02T14:46:15.759Z,64.47
2019-02-02T14:48:58.055Z,64.00
2019-02-02T14:51:26.820Z,63.30
2019-02-02T14:53:55.531Z,61.15
2019-02-02T14:56:31.063Z,57.48
2019-02-02T14:59:06.380Z,55.10
2019-02-02T15:01:41.739Z,59.73
2019-02-02T15:04:10.541Z,55.50
2019-02-02T15:06:39.613Z,57.10
2019-02-02T15:09:15.357Z,53.10
2019-02-02T15:11:44.397Z,53.52
2019-02-02T15:14:13.667Z,48.15
2019-02-02T15:16:50.473Z,50.30
2019-02-02T15:19:19.260Z,51.30
2019-02-02T15:22:08.070Z,44.97
2019-02-02T15:24:44.130Z,45.45
2019-02-02T15:27:19.370Z,48.98
2019-02-02T15:37:08.045Z,47.53
2019-02-02T15:39:36.981Z,48.78
2019-02-02T15:42:06.288Z,45.50
2019-02-02T15:44:42.203Z,45.98
2019-02-02T15:47:17.877Z,48.05
2019-02-02T15:50:00.028Z,43.05
2019-02-02T15:52:28.739Z,44.75
2019-02-02T15:54:57.725Z,45.92
2019-02-02T15:57:33.314Z,42.35
2019-02-02T16:00:18.048Z,45.00
2019-02-02T16:02:53.729Z,44.05
2019-02-02T16:05:22.700Z,42.58
2019-02-02T16:07:51.526Z,47.35
2019-02-02T16:10:29.330Z,44.27
2019-02-02T16:12:58.387Z,42.65
2019-02-02T16:15:27.425Z,45.60
2019-02-02T16:18:03.727Z,44.60
2019-02-02T16:20:34.945Z,48.68
2019-02-02T16:23:05.293Z,44.93
2019-02-02T16:42:45.876Z,49.48
2019-02-02T16:45:16.746Z,51.10
2019-02-02T16:47:58.402Z,51.25
2019-02-02T16:50:33.711Z,49.25
2019-02-02T16:53:09.379Z,50.25
2019-02-02T16:55:38.240Z,55.08
2019-02-02T16:58:07.054Z,49.58
2019-02-02T17:00:48.579Z,52.50
2019-02-02T17:03:17.644Z,48.63
2019-02-02T17:05:46.474Z,49.30
2019-02-02T17:08:22.644Z,48.65
2019-02-02T17:10:51.656Z,46.77
2019-02-02T17:13:20.910Z,46.30
2019-02-02T17:15:56.559Z,46.73
2019-02-02T17:18:25.473Z,47.93
2019-02-02T17:20:54.625Z,47.05
2019-02-02T17:23:29.669Z,48.60
2019-02-02T17:25:58.742Z,47.98
2019-02-02T17:28:28.689Z,46.33
2019-02-02T17:31:04.440Z,47.93
2019-02-02T17:33:33.253Z,48.83
2019-02-02T17:36:02.100Z,46.65
2019-02-02T17:38:37.859Z,45.80
2019-02-02T17:41:06.907Z,47.80
2019-02-02T17:43:35.960Z,47.83
2019-02-02T17:46:12.756Z,47.67
2019-02-02T17:48:47.960Z,46.55
2019-02-02T17:51:30.623Z,47.20
2019-02-02T17:53:59.396Z,44.35
2019-02-02T17:56:28.278Z,47.45
2019-02-02T17:59:03.748Z,46.58
2019-02-02T18:01:39.415Z,48.90
2019-02-02T18:04:15.042Z,46.30
2019-02-02T18:06:43.780Z,46.98
2019-02-02T18:09:12.971Z,48.90
2019-02-02T18:11:48.563Z,45.88
2019-02-02T18:14:17.856Z,47.58
2019-02-02T18:16:46.644Z,49.08
2019-02-02T18:19:21.892Z,46.85
2019-02-02T18:21:50.934Z,48.23
2019-02-02T18:24:20.237Z,46.18
2019-02-02T18:26:56.291Z,45.10
2019-02-02T18:29:25.123Z,48.48
2019-02-02T18:31:53.920Z,43.63
2019-02-02T18:34:31.930Z,46.92
2019-02-02T18:37:01.229Z,47.83
2019-02-02T18:43:32.196Z,44.50
2019-02-02T18:46:00.943Z,44.35
2019-02-02T18:48:29.966Z,43.10
2019-02-02T18:51:06.400Z,45.12
2019-02-02T18:53:41.945Z,44.88
2019-02-02T18:56:19.087Z,42.80
2019-02-02T18:58:47.883Z,46.23
2019-02-02T19:01:16.950Z,46.77
2019-02-02T19:03:59.421Z,43.48
2019-02-02T19:06:28.481Z,44.20
2019-02-02T19:08:58.098Z,43.70
2019-02-02T19:11:34.069Z,42.20
2019-02-02T19:14:03.099Z,44.45
2019-02-02T19:16:31.866Z,44.42
2019-02-02T19:19:07.252Z,43.73
2019-02-02T19:21:36.340Z,43.05
2019-02-02T19:24:05.526Z,42.98
2019-02-02T19:26:41.445Z,41.37
2019-02-02T19:29:10.290Z,43.27
2019-02-02T19:31:39.054Z,42.53
2019-02-02T19:34:14.698Z,41.98
2019-02-02T19:36:43.510Z,42.50
2019-02-02T19:39:12.318Z,40.45
2019-02-02T19:41:47.263Z,42.08
2019-02-02T19:44:16.369Z,41.40
2019-02-02T19:46:45.201Z,42.85
2019-02-02T19:49:21.148Z,43.25
2019-02-02T19:51:56.405Z,43.73
2019-02-02T19:54:38.578Z,43.38
2019-02-02T19:57:07.397Z,44.00
2019-02-02T19:59:36.181Z,44.35
2019-02-02T20:02:12.067Z,41.95
2019-02-02T20:04:47.152Z,45.10
2019-02-02T20:07:23.004Z,43.80
2019-02-02T20:09:51.823Z,42.70
2019-02-02T20:12:20.591Z,44.65
2019-02-02T20:14:57.166Z,42.38
2019-02-02T20:17:25.890Z,44.77
2019-02-02T20:19:54.655Z,42.58
2019-02-02T20:22:30.483Z,45.00
2019-02-02T20:24:59.253Z,45.07
2019-02-02T20:27:28.013Z,44.80
2019-02-02T20:30:03.439Z,44.57
2019-02-02T20:32:32.507Z,43.35
2019-02-02T20:35:01.577Z,43.95
2019-02-02T20:37:37.315Z,42.57
2019-02-02T20:40:07.766Z,44.48
2019-02-02T20:42:36.834Z,44.15
2019-02-02T20:45:13.859Z,45.65
2019-02-02T20:47:43.431Z,46.37
2019-02-02T20:50:27.259Z,43.08
2019-02-02T20:53:03.368Z,45.65
2019-02-02T20:55:47.942Z,42.95
2019-02-02T20:58:16.749Z,47.38
2019-02-02T21:00:45.567Z,47.55
2019-02-02T21:03:20.659Z,48.20
2019-02-02T21:05:56.522Z,45.95
2019-02-02T21:08:31.714Z,48.00
2019-02-02T21:11:00.982Z,47.83
2019-02-02T21:13:29.719Z,45.53
2019-02-02T21:16:05.436Z,46.48
2019-02-02T21:18:35.083Z,44.88
2019-02-02T21:21:06.278Z,46.35
2019-02-02T21:23:41.798Z,46.37
2019-02-02T21:26:11.107Z,46.98
2019-02-02T21:28:50.113Z,46.13
2019-02-02T21:31:17.124Z,46.60
2019-02-02T21:33:45.854Z,49.35
2019-02-02T21:36:14.585Z,43.73
2019-02-02T21:38:49.941Z,45.70
2019-02-02T21:41:18.731Z,46.63
2019-02-02T21:43:47.766Z,42.35
2019-02-02T21:46:23.768Z,44.25
2019-02-02T21:48:58.813Z,42.80
2019-02-02T21:51:41.122Z,38.75
2019-02-02T21:54:17.399Z,40.60
2019-02-02T21:56:52.698Z,44.03
2019-02-02T21:59:21.461Z,41.70
2019-02-02T22:01:50.593Z,40.70
2019-02-02T22:04:25.895Z,37.80
2019-02-02T22:07:01.817Z,38.30
2019-02-02T22:09:37.225Z,37.30
2019-02-02T22:12:06.399Z,35.03
2019-02-02T22:14:35.371Z,34.10
2019-02-02T22:17:10.663Z,33.67
2019-02-02T22:19:39.417Z,31.68
2019-02-02T22:22:08.220Z,32.23
2019-02-02T22:24:44.192Z,31.70
2019-02-02T22:27:12.905Z,29.92
2019-02-02T22:29:41.633Z,31.33
2019-02-02T22:32:17.438Z,27.77
2019-02-02T22:34:46.120Z,28.38
2019-02-02T22:37:14.877Z,25.50
2019-02-02T22:39:50.661Z,26.15
2019-02-02T22:42:19.454Z,24.60
2019-02-02T22:44:48.592Z,26.30
2019-02-02T22:47:24.381Z,25.32
2019-02-02T22:49:53.116Z,24.90
2019-02-02T22:52:35.797Z,26.68
2019-02-02T22:55:12.882Z,26.42
2019-02-02T22:57:47.901Z,25.80
2019-02-02T23:01:01.323Z,24.27
2019-02-02T23:04:06.648Z,24.52
2019-02-02T23:06:44.214Z,24.15
2019-02-02T23:10:08.176Z,24.03
2019-02-02T23:12:59.461Z,23.77
2019-02-02T23:16:16.714Z,23.35
2019-02-02T23:18:46.882Z,23.70
2019-02-02T23:21:15.846Z,20.37
2019-02-02T23:30:56.300Z,18.90
2019-02-02T23:33:25.550Z,21.95
2019-02-02T23:35:54.890Z,20.48
2019-02-02T23:38:30.739Z,19.87
2019-02-02T23:40:59.673Z,19.23
2019-02-02T23:43:29.184Z,18.50
2019-02-02T23:46:05.023Z,18.12
2019-02-02T23:48:33.921Z,18.90
2019-02-02T23:51:02.791Z,17.10
2019-02-02T23:53:38.233Z,16.83
2019-02-02T23:56:13.859Z,17.10
2019-02-02T23:58:49.437Z,17.98
